Main page
METAR-TAF:

METAR-TAF

Airports :

Oradea International Airport

Oradea, Romania

latitude: 47-03N, longitude: 021-56E, elevation: 135 m

Current weather observation

The report was made 41 minutes ago, at 22:00 UTC
Wind 7 kt from the North/Northeast
Temperature 19°C
Humidity 83%
Pressure 1020 hPa
Visibility 10 km or more

METAR: LROD 092200Z AUTO 03007KT 9999 NCD 19/16 Q1020

Time: 01:41 (22:41 UTC)

Forecast

The report was made 5 hours and 41 minutes ago, at 17:00 UTC
Forecast valid from 09 at 18 UTC to 10 at 03 UTC
Wind 4 kt from variable directions
Visibility 10 km or more
no clouds below 1500 m and no cumulonimbus

TAF: LROD 091700Z 0918/1003 VRB04KT CAVOK

Weather observations and forecasts of more than 4000 airports (METAR and TAF reports).

The available stations are represented by yellow and red dots on the map.

Hover mouse over dot to see the name of the station.

Then click to see weather observations and forecasts.

To change the map : click on the green buttons with a black cross to zoom in, on the green button with a dash to zoom out, or on the green arrows for adjacent maps.


METAR-TAF: